Time,TemperatureF,DewpointF,PressureIn,WindDirection,WindDirectionDegrees,WindSpeedMPH,WindSpeedGustMPH,Humidity,HourlyPrecipIn,Conditions,Clouds,dailyrainin,SoftwareType,DateUTC
2013-11-04 00:23:00,35.0,30.0,30.39,ESE,117,0.0,0.0,83,0.00,,,0.01,,2013-11-04 05:23:00,
2013-11-04 00:44:00,34.0,29.0,30.39,SE,130,0.0,2.0,83,0.00,,,0.01,,2013-11-04 05:44:00,
2013-11-04 00:53:00,34.0,29.0,30.39,ESE,109,0.0,2.0,83,0.00,,,0.01,,2013-11-04 05:53:00,
2013-11-04 01:23:00,34.0,29.0,30.40,ESE,114,0.0,3.0,83,0.00,,,0.01,,2013-11-04 06:23:00,
2013-11-04 01:42:00,34.0,29.0,30.40,SE,128,0.0,0.0,83,0.00,,,0.01,,2013-11-04 06:42:00,
2013-11-04 01:52:00,34.0,29.0,30.39,East,94,0.0,0.0,83,0.00,,,0.01,,2013-11-04 06:52:00,
2013-11-04 02:11:00,34.0,29.0,30.39,ESE,102,0.0,1.0,83,0.00,,,0.01,,2013-11-04 07:11:00,
2013-11-04 02:22:00,33.0,28.0,30.38,ESE,111,0.0,2.0,83,0.00,,,0.01,,2013-11-04 07:22:00,
2013-11-04 02:42:00,33.0,28.0,30.38,East,98,0.0,2.0,83,0.00,,,0.01,,2013-11-04 07:42:00,
2013-11-04 02:52:00,33.0,28.0,30.38,ESE,104,0.0,0.0,83,0.00,,,0.01,,2013-11-04 07:52:00,
2013-11-04 03:21:00,33.0,28.0,30.39,ESE,122,0.0,0.0,83,0.00,,,0.01,,2013-11-04 08:21:00,
2013-11-04 03:42:00,33.0,28.0,30.39,ENE,69,0.0,3.0,83,0.00,,,0.01,,2013-11-04 08:42:00,
2013-11-04 03:52:00,33.0,28.0,30.39,East,96,0.0,0.0,82,0.00,,,0.01,,2013-11-04 08:52:00,
2013-11-04 04:22:00,33.0,28.0,30.37,ENE,71,0.0,1.0,81,0.00,,,0.01,,2013-11-04 09:22:00,
2013-11-04 04:33:00,33.0,28.0,30.37,ENE,71,0.0,1.0,81,0.00,,,0.01,,2013-11-04 09:33:00,
2013-11-04 04:43:00,33.0,28.0,30.37,ENE,71,0.0,1.0,81,0.00,,,0.01,,2013-11-04 09:43:00,
2013-11-04 04:53:00,33.0,28.0,30.37,SE,141,0.0,0.0,81,0.00,,,0.01,,2013-11-04 09:53:00,
2013-11-04 05:23:00,34.0,29.0,30.38,SE,134,0.0,2.0,82,0.00,,,0.01,,2013-11-04 10:23:00,
2013-11-04 05:42:00,34.0,29.0,30.37,ESE,113,0.0,3.0,82,0.00,,,0.01,,2013-11-04 10:42:00,
2013-11-04 05:52:00,34.0,29.0,30.37,SSE,156,1.0,3.0,83,0.00,,,0.01,,2013-11-04 10:52:00,
2013-11-04 06:22:00,34.0,30.0,30.38,SE,132,0.0,0.0,84,0.00,,,0.01,,2013-11-04 11:22:00,
2013-11-04 06:42:00,34.0,30.0,30.38,SE,126,0.0,2.0,85,0.00,,,0.01,,2013-11-04 11:42:00,
2013-11-04 06:52:00,34.0,30.0,30.38,South,172,0.0,0.0,86,0.00,,,0.01,,2013-11-04 11:52:00,
2013-11-04 07:22:00,35.0,32.0,30.37,SSE,166,0.0,3.0,87,0.00,,,0.01,,2013-11-04 12:22:00,
2013-11-04 07:52:00,36.0,33.0,30.36,SSE,156,0.0,3.0,88,0.00,,,0.01,,2013-11-04 12:52:00,
2013-11-04 08:11:00,36.0,33.0,30.37,SSW,192,0.0,2.0,88,0.00,,,0.01,,2013-11-04 13:11:00,
2013-11-04 08:22:00,36.0,33.0,30.37,SSE,152,0.0,3.0,88,0.00,,,0.01,,2013-11-04 13:22:00,
2013-11-04 08:42:00,37.0,34.0,30.37,SE,136,1.0,3.0,87,0.00,,,0.01,,2013-11-04 13:42:00,
2013-11-04 08:52:00,38.0,34.0,30.37,SE,128,0.0,2.0,85,0.00,,,0.01,,2013-11-04 13:52:00,
2013-11-04 09:11:00,38.0,33.0,30.37,SE,144,2.0,5.0,83,0.00,,,0.01,,2013-11-04 14:11:00,
2013-11-04 09:22:00,39.0,34.0,30.37,SE,128,5.0,6.0,81,0.00,,,0.01,,2013-11-04 14:22:00,
2013-11-04 09:42:00,40.0,33.0,30.37,South,182,7.0,7.0,77,0.00,,,0.00,,2013-11-04 14:42:00,
2013-11-04 09:52:00,41.0,33.0,30.37,SSE,152,5.0,11.0,73,0.00,,,0.00,,2013-11-04 14:52:00,
2013-11-04 10:22:00,42.0,33.0,30.36,SE,138,6.0,6.0,70,0.00,,,0.00,,2013-11-04 15:22:00,
2013-11-04 10:42:00,42.0,32.0,30.36,SSW,197,4.0,9.0,68,0.00,,,0.00,,2013-11-04 15:42:00,
2013-11-04 10:52:00,43.0,32.0,30.36,SE,132,0.0,9.0,66,0.00,,,0.00,,2013-11-04 15:52:00,
2013-11-04 11:23:00,44.0,32.0,30.35,SSW,197,2.0,7.0,62,0.00,,,0.00,,2013-11-04 16:23:00,
2013-11-04 11:43:00,45.0,31.0,30.35,SSW,213,0.0,9.0,58,0.00,,,0.00,,2013-11-04 16:43:00,
2013-11-04 11:53:00,45.0,31.0,30.35,SSW,213,0.0,9.0,58,0.00,,,0.00,,2013-11-04 16:53:00,
2013-11-04 12:22:00,49.0,30.0,30.32,SE,145,0.0,12.0,47,0.00,,,0.00,,2013-11-04 17:22:00,
2013-11-04 12:42:00,49.0,30.0,30.32,SE,125,4.0,15.0,48,0.00,,,0.00,,2013-11-04 17:42:00,
2013-11-04 12:53:00,48.0,28.0,30.31,SE,142,0.0,9.0,46,0.00,,,0.00,,2013-11-04 17:53:00,
2013-11-04 13:01:00,48.0,28.0,30.31,SE,142,0.0,9.0,46,0.00,,,0.00,,2013-11-04 18:01:00,
2013-11-04 13:23:00,48.0,30.0,30.30,SE,145,1.0,12.0,49,0.00,,,0.00,,2013-11-04 18:23:00,
2013-11-04 13:42:00,48.0,30.0,30.30,SE,140,5.0,11.0,49,0.00,,,0.00,,2013-11-04 18:42:00,
2013-11-04 13:52:00,49.0,31.0,30.29,SSE,163,2.0,7.0,49,0.00,,,0.00,,2013-11-04 18:52:00,
2013-11-04 14:22:00,49.0,30.0,30.27,East,85,1.0,11.0,47,0.00,,,0.00,,2013-11-04 19:22:00,
2013-11-04 14:42:00,49.0,28.0,30.27,SSE,150,2.0,11.0,44,0.00,,,0.00,,2013-11-04 19:42:00,
2013-11-04 14:52:00,49.0,29.0,30.27,South,178,5.0,7.0,46,0.00,,,0.00,,2013-11-04 19:52:00,
2013-11-04 15:22:00,49.0,30.0,30.25,SSE,150,2.0,10.0,47,0.00,,,0.00,,2013-11-04 20:22:00,
2013-11-04 15:42:00,49.0,29.0,30.24,SSW,197,5.0,10.0,46,0.00,,,0.00,,2013-11-04 20:42:00,
2013-11-04 15:52:00,50.0,29.0,30.24,SE,136,1.0,6.0,45,0.00,,,0.00,,2013-11-04 20:52:00,
2013-11-04 16:22:00,50.0,32.0,30.25,SSE,152,4.0,7.0,49,0.00,,,0.00,,2013-11-04 21:22:00,
2013-11-04 16:45:00,49.0,30.0,30.24,East,92,0.0,6.0,47,0.00,,,0.00,,2013-11-04 21:45:00,
2013-11-04 16:54:00,48.0,31.0,30.24,ESE,121,0.0,4.0,51,0.00,,,0.00,,2013-11-04 21:54:00,
2013-11-04 17:23:00,47.0,31.0,30.23,SE,145,3.0,7.0,54,0.00,,,0.00,,2013-11-04 22:23:00,
2013-11-04 17:43:00,47.0,32.0,30.23,South,169,0.0,4.0,55,0.00,,,0.00,,2013-11-04 22:43:00,
2013-11-04 17:53:00,46.0,31.0,30.22,East,92,0.0,10.0,56,0.00,,,0.00,,2013-11-04 22:53:00,
2013-11-04 18:13:00,46.0,31.0,30.22,East,99,2.0,9.0,56,0.00,,,0.00,,2013-11-04 23:13:00,
2013-11-04 18:22:00,46.0,32.0,30.22,ESE,123,0.0,6.0,58,0.00,,,0.00,,2013-11-04 23:22:00,
2013-11-04 18:43:00,45.0,32.0,30.21,ESE,115,0.0,9.0,59,0.00,,,0.00,,2013-11-04 23:43:00,
2013-11-04 18:53:00,45.0,32.0,30.21,SSE,161,3.0,7.0,61,0.00,,,0.00,,2013-11-04 23:53:00,
2013-11-04 19:02:00,45.0,32.0,30.21,SSE,161,3.0,7.0,61,0.00,,,0.00,,2013-11-05 00:02:00,
2013-11-04 19:22:00,45.0,33.0,30.22,SSE,163,0.0,6.0,63,0.00,,,0.00,,2013-11-05 00:22:00,
2013-11-04 19:42:00,45.0,34.0,30.22,SSE,155,7.0,7.0,65,0.00,,,0.00,,2013-11-05 00:42:00,
2013-11-04 19:52:00,45.0,34.0,30.22,SSE,157,0.0,3.0,65,0.00,,,0.00,,2013-11-05 00:52:00,
2013-11-04 20:22:00,44.0,33.0,30.21,SE,132,1.0,4.0,66,0.00,,,0.00,,2013-11-05 01:22:00,
2013-11-04 20:42:00,44.0,34.0,30.22,SSE,158,2.0,5.0,67,0.00,,,0.00,,2013-11-05 01:42:00,
2013-11-04 20:52:00,45.0,34.0,30.22,ESE,115,0.0,7.0,66,0.00,,,0.00,,2013-11-05 01:52:00,
2013-11-04 21:22:00,44.0,34.0,30.22,South,180,2.0,5.0,68,0.00,,,0.00,,2013-11-05 02:22:00,
2013-11-04 21:42:00,44.0,34.0,30.22,SSW,194,0.0,2.0,69,0.00,,,0.00,,2013-11-05 02:42:00,
2013-11-04 21:52:00,44.0,34.0,30.22,SSE,153,0.0,4.0,69,0.00,,,0.00,,2013-11-05 02:52:00,
2013-11-04 22:22:00,44.0,35.0,30.21,ESE,106,0.0,2.0,70,0.00,,,0.00,,2013-11-05 03:22:00,
2013-11-04 22:44:00,44.0,35.0,30.21,South,177,0.0,5.0,70,0.00,,,0.00,,2013-11-05 03:44:00,
2013-11-04 22:54:00,44.0,35.0,30.20,SSE,149,2.0,3.0,70,0.00,,,0.00,,2013-11-05 03:54:00,
2013-11-04 23:13:00,44.0,35.0,30.20,SSW,198,0.0,4.0,70,0.00,,,0.00,,2013-11-05 04:13:00,
2013-11-04 23:23:00,44.0,35.0,30.20,SSW,193,0.0,2.0,70,0.00,,,0.00,,2013-11-05 04:23:00,
2013-11-04 23:43:00,44.0,35.0,30.19,SE,141,0.0,1.0,70,0.00,,,0.00,,2013-11-05 04:43:00,
2013-11-04 23:53:00,45.0,36.0,30.19,SSW,211,0.0,3.0,70,0.00,,,0.00,,2013-11-05 04:53:00,